sensor_id;sensor_type;location;lat;lon;timestamp;P1;durP1;ratioP1;P2;durP2;ratioP2
1122;SDS011;548;48.778;9.252;2022-12-15T04:22:00;59.60;;;40.00;;
1122;SDS011;548;48.778;9.252;2022-12-15T04:24:28;56.80;;;40.40;;
1122;SDS011;548;48.778;9.252;2022-12-15T04:27:13;60.33;;;41.20;;
1122;SDS011;548;48.778;9.252;2022-12-15T04:29:57;58.23;;;40.00;;
1122;SDS011;548;48.778;9.252;2022-12-15T04:32:41;46.60;;;37.10;;
1122;SDS011;548;48.778;9.252;2022-12-15T04:35:25;49.87;;;39.67;;
1122;SDS011;548;48.778;9.252;2022-12-15T04:38:11;54.70;;;41.20;;
1122;SDS011;548;48.778;9.252;2022-12-15T04:40:56;46.00;;;37.93;;
1122;SDS011;548;48.778;9.252;2022-12-15T04:43:40;51.67;;;38.73;;
1122;SDS011;548;48.778;9.252;2022-12-15T04:46:24;47.13;;;39.10;;
1122;SDS011;548;48.778;9.252;2022-12-15T04:49:08;51.23;;;38.50;;
1122;SDS011;548;48.778;9.252;2022-12-15T04:51:52;47.67;;;39.80;;
1122;SDS011;548;48.778;9.252;2022-12-15T04:54:37;47.70;;;37.63;;
1122;SDS011;548;48.778;9.252;2022-12-15T04:57:22;46.87;;;37.53;;
1122;SDS011;548;48.778;9.252;2022-12-15T05:00:06;52.90;;;37.63;;
1122;SDS011;548;48.778;9.252;2022-12-15T05:02:51;53.43;;;38.63;;
1122;SDS011;548;48.778;9.252;2022-12-15T05:05:35;46.80;;;38.63;;
1122;SDS011;548;48.778;9.252;2022-12-15T05:08:20;46.40;;;39.07;;
1122;SDS011;548;48.778;9.252;2022-12-15T05:11:05;52.10;;;41.97;;
1122;SDS011;548;48.778;9.252;2022-12-15T05:13:49;53.90;;;40.30;;
1122;SDS011;548;48.778;9.252;2022-12-15T05:16:33;52.07;;;39.40;;
1122;SDS011;548;48.778;9.252;2022-12-15T05:19:18;52.27;;;41.93;;
1122;SDS011;548;48.778;9.252;2022-12-15T05:22:01;48.90;;;40.07;;
1122;SDS011;548;48.778;9.252;2022-12-15T05:24:46;52.07;;;39.67;;
1122;SDS011;548;48.778;9.252;2022-12-15T05:27:31;48.43;;;38.30;;
1122;SDS011;548;48.778;9.252;2022-12-15T05:30:16;47.83;;;40.50;;
1122;SDS011;548;48.778;9.252;2022-12-15T05:33:01;46.80;;;37.10;;
1122;SDS011;548;48.778;9.252;2022-12-15T05:35:28;52.10;;;42.17;;
1122;SDS011;548;48.778;9.252;2022-12-15T05:37:55;56.50;;;39.40;;
1122;SDS011;548;48.778;9.252;2022-12-15T05:40:22;49.87;;;39.60;;
1122;SDS011;548;48.778;9.252;2022-12-15T05:42:50;51.30;;;39.00;;
1122;SDS011;548;48.778;9.252;2022-12-15T05:45:17;50.00;;;38.80;;
1122;SDS011;548;48.778;9.252;2022-12-15T05:47:45;50.90;;;39.87;;
1122;SDS011;548;48.778;9.252;2022-12-15T05:50:15;59.13;;;39.53;;
1122;SDS011;548;48.778;9.252;2022-12-15T05:52:42;52.07;;;38.63;;
1122;SDS011;548;48.778;9.252;2022-12-15T05:55:09;49.47;;;40.03;;
1122;SDS011;548;48.778;9.252;2022-12-15T05:57:36;70.00;;;42.07;;
1122;SDS011;548;48.778;9.252;2022-12-15T06:00:04;54.47;;;39.80;;
1122;SDS011;548;48.778;9.252;2022-12-15T06:02:32;44.43;;;37.57;;
1122;SDS011;548;48.778;9.252;2022-12-15T06:04:58;55.17;;;40.87;;
1122;SDS011;548;48.778;9.252;2022-12-15T06:07:26;52.13;;;40.23;;
1122;SDS011;548;48.778;9.252;2022-12-15T06:09:52;51.73;;;38.23;;
1122;SDS011;548;48.778;9.252;2022-12-15T06:12:19;50.27;;;40.40;;
1122;SDS011;548;48.778;9.252;2022-12-15T06:14:46;50.70;;;42.27;;
1122;SDS011;548;48.778;9.252;2022-12-15T06:17:14;50.83;;;40.40;;
1122;SDS011;548;48.778;9.252;2022-12-15T06:19:41;55.03;;;41.20;;
1122;SDS011;548;48.778;9.252;2022-12-15T06:22:08;57.90;;;42.93;;
1122;SDS011;548;48.778;9.252;2022-12-15T06:24:34;48.60;;;39.87;;
1122;SDS011;548;48.778;9.252;2022-12-15T06:27:01;50.10;;;40.13;;
1122;SDS011;548;48.778;9.252;2022-12-15T06:29:28;52.90;;;38.53;;
1122;SDS011;548;48.778;9.252;2022-12-15T06:31:55;52.47;;;40.43;;
1122;SDS011;548;48.778;9.252;2022-12-15T06:34:23;58.40;;;40.87;;
1122;SDS011;548;48.778;9.252;2022-12-15T06:36:51;50.53;;;40.53;;
1122;SDS011;548;48.778;9.252;2022-12-15T06:39:17;52.67;;;39.37;;
1122;SDS011;548;48.778;9.252;2022-12-15T06:41:45;56.03;;;42.40;;
1122;SDS011;548;48.778;9.252;2022-12-15T06:44:13;51.50;;;39.20;;
1122;SDS011;548;48.778;9.252;2022-12-15T06:46:40;47.00;;;39.57;;
1122;SDS011;548;48.778;9.252;2022-12-15T06:49:08;58.77;;;42.10;;
1122;SDS011;548;48.778;9.252;2022-12-15T06:51:36;44.63;;;38.43;;
1122;SDS011;548;48.778;9.252;2022-12-15T06:54:03;52.00;;;40.17;;
1122;SDS011;548;48.778;9.252;2022-12-15T06:56:30;48.30;;;41.37;;
1122;SDS011;548;48.778;9.252;2022-12-15T06:59:00;46.77;;;39.37;;
1122;SDS011;548;48.778;9.252;2022-12-15T07:01:28;46.63;;;40.00;;
1122;SDS011;548;48.778;9.252;2022-12-15T07:03:55;49.47;;;40.27;;
1122;SDS011;548;48.778;9.252;2022-12-15T07:06:23;50.20;;;39.67;;
1122;SDS011;548;48.778;9.252;2022-12-15T07:08:52;49.43;;;38.20;;
1122;SDS011;548;48.778;9.252;2022-12-15T07:11:20;47.50;;;38.40;;
1122;SDS011;548;48.778;9.252;2022-12-15T07:13:48;48.93;;;39.50;;
1122;SDS011;548;48.778;9.252;2022-12-15T07:16:15;47.60;;;37.77;;
1122;SDS011;548;48.778;9.252;2022-12-15T07:18:42;48.70;;;39.07;;
1122;SDS011;548;48.778;9.252;2022-12-15T07:21:09;45.70;;;38.33;;
1122;SDS011;548;48.778;9.252;2022-12-15T07:23:36;46.83;;;38.50;;
1122;SDS011;548;48.778;9.252;2022-12-15T07:26:05;47.00;;;37.70;;
1122;SDS011;548;48.778;9.252;2022-12-15T07:28:33;43.47;;;37.40;;
1122;SDS011;548;48.778;9.252;2022-12-15T07:31:01;47.87;;;37.93;;
1122;SDS011;548;48.778;9.252;2022-12-15T07:33:28;47.47;;;38.77;;
1122;SDS011;548;48.778;9.252;2022-12-15T07:35:57;50.23;;;39.10;;
1122;SDS011;548;48.778;9.252;2022-12-15T07:38:24;50.57;;;40.20;;
1122;SDS011;548;48.778;9.252;2022-12-15T07:40:52;47.53;;;40.20;;
1122;SDS011;548;48.778;9.252;2022-12-15T07:43:20;50.33;;;38.63;;
1122;SDS011;548;48.778;9.252;2022-12-15T07:45:50;48.10;;;38.30;;
1122;SDS011;548;48.778;9.252;2022-12-15T07:48:17;43.90;;;38.67;;
1122;SDS011;548;48.778;9.252;2022-12-15T07:50:44;39.00;;;34.97;;
1122;SDS011;548;48.778;9.252;2022-12-15T07:53:11;43.83;;;37.07;;
1122;SDS011;548;48.778;9.252;2022-12-15T07:55:38;46.70;;;36.50;;
1122;SDS011;548;48.778;9.252;2022-12-15T07:58:05;42.70;;;34.87;;
1122;SDS011;548;48.778;9.252;2022-12-15T08:00:34;41.77;;;36.00;;
1122;SDS011;548;48.778;9.252;2022-12-15T08:03:00;45.57;;;36.13;;
1122;SDS011;548;48.778;9.252;2022-12-15T08:05:27;42.93;;;36.33;;
1122;SDS011;548;48.778;9.252;2022-12-15T08:07:55;40.07;;;35.90;;
1122;SDS011;548;48.778;9.252;2022-12-15T08:10:22;40.40;;;36.00;;
1122;SDS011;548;48.778;9.252;2022-12-15T08:12:49;43.30;;;33.33;;
1122;SDS011;548;48.778;9.252;2022-12-15T08:15:17;47.80;;;38.90;;
1122;SDS011;548;48.778;9.252;2022-12-15T08:17:45;46.20;;;33.80;;
1122;SDS011;548;48.778;9.252;2022-12-15T08:20:12;46.90;;;37.20;;
1122;SDS011;548;48.778;9.252;2022-12-15T08:22:40;45.23;;;34.47;;
1122;SDS011;548;48.778;9.252;2022-12-15T08:25:07;45.37;;;36.53;;
1122;SDS011;548;48.778;9.252;2022-12-15T08:27:34;45.90;;;34.77;;
1122;SDS011;548;48.778;9.252;2022-12-15T08:30:01;42.77;;;36.77;;
1122;SDS011;548;48.778;9.252;2022-12-15T08:32:28;46.10;;;37.10;;
1122;SDS011;548;48.778;9.252;2022-12-15T08:34:56;50.73;;;40.43;;
1122;SDS011;548;48.778;9.252;2022-12-15T08:37:23;46.57;;;41.00;;
1122;SDS011;548;48.778;9.252;2022-12-15T08:39:50;44.70;;;39.90;;
1122;SDS011;548;48.778;9.252;2022-12-15T08:42:17;44.67;;;39.87;;
1122;SDS011;548;48.778;9.252;2022-12-15T08:44:46;47.27;;;42.67;;
1122;SDS011;548;48.778;9.252;2022-12-15T08:47:13;48.40;;;42.60;;
1122;SDS011;548;48.778;9.252;2022-12-15T08:49:40;46.97;;;42.10;;
1122;SDS011;548;48.778;9.252;2022-12-15T08:52:08;48.70;;;43.70;;
1122;SDS011;548;48.778;9.252;2022-12-15T08:54:36;47.20;;;42.60;;
1122;SDS011;548;48.778;9.252;2022-12-15T08:57:03;46.23;;;41.43;;
1122;SDS011;548;48.778;9.252;2022-12-15T08:59:30;48.60;;;43.17;;
1122;SDS011;548;48.778;9.252;2022-12-15T09:01:57;49.10;;;43.07;;
1122;SDS011;548;48.778;9.252;2022-12-15T09:04:24;48.87;;;43.93;;
1122;SDS011;548;48.778;9.252;2022-12-15T09:06:51;47.73;;;42.63;;
1122;SDS011;548;48.778;9.252;2022-12-15T09:09:19;48.07;;;42.90;;
1122;SDS011;548;48.778;9.252;2022-12-15T09:11:47;47.57;;;42.93;;
1122;SDS011;548;48.778;9.252;2022-12-15T09:14:14;49.70;;;44.40;;
1122;SDS011;548;48.778;9.252;2022-12-15T09:16:41;48.53;;;43.63;;
1122;SDS011;548;48.778;9.252;2022-12-15T09:19:08;49.37;;;42.40;;
1122;SDS011;548;48.778;9.252;2022-12-15T09:21:35;50.10;;;42.60;;
1122;SDS011;548;48.778;9.252;2022-12-15T09:24:02;48.00;;;43.00;;
1122;SDS011;548;48.778;9.252;2022-12-15T09:26:31;49.50;;;44.27;;
1122;SDS011;548;48.778;9.252;2022-12-15T09:28:59;48.03;;;43.17;;
1122;SDS011;548;48.778;9.252;2022-12-15T09:31:28;50.37;;;45.00;;
1122;SDS011;548;48.778;9.252;2022-12-15T09:33:57;53.30;;;43.97;;
1122;SDS011;548;48.778;9.252;2022-12-15T09:36:26;49.10;;;43.90;;
1122;SDS011;548;48.778;9.252;2022-12-15T09:38:54;48.30;;;43.70;;
1122;SDS011;548;48.778;9.252;2022-12-15T09:41:21;48.00;;;43.27;;
1122;SDS011;548;48.778;9.252;2022-12-15T09:43:53;47.70;;;42.57;;
1122;SDS011;548;48.778;9.252;2022-12-15T09:46:29;49.40;;;44.10;;
1122;SDS011;548;48.778;9.252;2022-12-15T09:49:09;49.57;;;44.57;;
1122;SDS011;548;48.778;9.252;2022-12-15T09:51:41;51.60;;;43.43;;
1122;SDS011;548;48.778;9.252;2022-12-15T09:54:13;48.57;;;43.90;;
1122;SDS011;548;48.778;9.252;2022-12-15T09:56:41;50.83;;;45.40;;
1122;SDS011;548;48.778;9.252;2022-12-15T09:59:22;49.53;;;44.07;;
1122;SDS011;548;48.778;9.252;2022-12-15T10:01:55;55.33;;;48.13;;
1122;SDS011;548;48.778;9.252;2022-12-15T10:04:31;51.23;;;46.10;;
1122;SDS011;548;48.778;9.252;2022-12-15T10:07:07;47.87;;;43.07;;
1122;SDS011;548;48.778;9.252;2022-12-15T10:09:43;51.47;;;46.03;;
1122;SDS011;548;48.778;9.252;2022-12-15T10:12:12;48.50;;;43.77;;
1122;SDS011;548;48.778;9.252;2022-12-15T10:14:48;50.23;;;45.33;;
1122;SDS011;548;48.778;9.252;2022-12-15T10:17:18;47.97;;;43.00;;
1122;SDS011;548;48.778;9.252;2022-12-15T10:19:51;49.17;;;44.07;;
1122;SDS011;548;48.778;9.252;2022-12-15T10:22:21;47.13;;;42.13;;
1122;SDS011;548;48.778;9.252;2022-12-15T10:24:51;49.60;;;44.80;;
1122;SDS011;548;48.778;9.252;2022-12-15T10:27:24;49.57;;;44.70;;
1122;SDS011;548;48.778;9.252;2022-12-15T10:30:01;50.27;;;45.73;;
1122;SDS011;548;48.778;9.252;2022-12-15T10:32:32;50.67;;;45.60;;
1122;SDS011;548;48.778;9.252;2022-12-15T10:35:11;51.40;;;46.37;;
1122;SDS011;548;48.778;9.252;2022-12-15T10:37:41;51.47;;;46.03;;
1122;SDS011;548;48.778;9.252;2022-12-15T10:40:09;50.30;;;44.80;;
1122;SDS011;548;48.778;9.252;2022-12-15T10:42:44;51.07;;;46.07;;
1122;SDS011;548;48.778;9.252;2022-12-15T10:45:29;49.27;;;43.93;;
1122;SDS011;548;48.778;9.252;2022-12-15T10:48:00;49.23;;;44.23;;
1122;SDS011;548;48.778;9.252;2022-12-15T10:50:28;50.03;;;45.07;;
1122;SDS011;548;48.778;9.252;2022-12-15T10:52:55;47.33;;;42.67;;
1122;SDS011;548;48.778;9.252;2022-12-15T10:55:32;49.30;;;44.27;;
1122;SDS011;548;48.778;9.252;2022-12-15T10:58:03;51.40;;;46.57;;
1122;SDS011;548;48.778;9.252;2022-12-15T11:00:42;52.90;;;47.80;;
1122;SDS011;548;48.778;9.252;2022-12-15T11:03:19;48.33;;;43.47;;
1122;SDS011;548;48.778;9.252;2022-12-15T11:05:49;50.53;;;45.30;;
1122;SDS011;548;48.778;9.252;2022-12-15T11:08:18;50.73;;;46.23;;
1122;SDS011;548;48.778;9.252;2022-12-15T11:10:49;50.90;;;45.87;;
1122;SDS011;548;48.778;9.252;2022-12-15T11:13:36;51.50;;;46.10;;
1122;SDS011;548;48.778;9.252;2022-12-15T11:16:10;45.47;;;41.27;;
1122;SDS011;548;48.778;9.252;2022-12-15T11:18:41;46.10;;;41.73;;
1122;SDS011;548;48.778;9.252;2022-12-15T11:21:11;48.50;;;43.83;;
1122;SDS011;548;48.778;9.252;2022-12-15T11:23:57;47.73;;;42.70;;
1122;SDS011;548;48.778;9.252;2022-12-15T11:26:33;50.80;;;45.70;;
1122;SDS011;548;48.778;9.252;2022-12-15T11:29:09;50.57;;;45.80;;
1122;SDS011;548;48.778;9.252;2022-12-15T11:31:45;49.57;;;45.07;;
1122;SDS011;548;48.778;9.252;2022-12-15T11:34:12;50.20;;;45.20;;
1122;SDS011;548;48.778;9.252;2022-12-15T11:36:52;50.00;;;44.63;;
1122;SDS011;548;48.778;9.252;2022-12-15T11:40:00;47.67;;;43.20;;
1122;SDS011;548;48.778;9.252;2022-12-15T11:42:59;47.97;;;43.23;;
1122;SDS011;548;48.778;9.252;2022-12-15T11:45:35;47.70;;;43.23;;
1122;SDS011;548;48.778;9.252;2022-12-15T11:48:13;46.60;;;41.83;;
1122;SDS011;548;48.778;9.252;2022-12-15T11:50:47;46.27;;;41.97;;
1122;SDS011;548;48.778;9.252;2022-12-15T11:53:30;48.17;;;43.57;;
1122;SDS011;548;48.778;9.252;2022-12-15T11:56:21;47.57;;;43.07;;
1122;SDS011;548;48.778;9.252;2022-12-15T12:02:16;46.73;;;42.40;;
1122;SDS011;548;48.778;9.252;2022-12-15T12:05:00;46.90;;;42.40;;
1122;SDS011;548;48.778;9.252;2022-12-15T12:07:46;46.27;;;41.97;;
1122;SDS011;548;48.778;9.252;2022-12-15T12:10:21;46.50;;;41.80;;
1122;SDS011;548;48.778;9.252;2022-12-15T12:12:58;46.20;;;41.43;;
1122;SDS011;548;48.778;9.252;2022-12-15T12:15:37;47.67;;;43.47;;
1122;SDS011;548;48.778;9.252;2022-12-15T12:18:13;47.87;;;43.13;;
1122;SDS011;548;48.778;9.252;2022-12-15T12:20:46;46.87;;;42.47;;
1122;SDS011;548;48.778;9.252;2022-12-15T12:23:15;47.73;;;43.07;;
1122;SDS011;548;48.778;9.252;2022-12-15T12:25:47;47.50;;;42.60;;
1122;SDS011;548;48.778;9.252;2022-12-15T12:28:25;49.00;;;44.30;;
1122;SDS011;548;48.778;9.252;2022-12-15T12:30:57;47.80;;;43.17;;
1122;SDS011;548;48.778;9.252;2022-12-15T12:33:28;42.90;;;38.83;;
1122;SDS011;548;48.778;9.252;2022-12-15T12:36:05;43.20;;;39.20;;
1122;SDS011;548;48.778;9.252;2022-12-15T12:38:37;42.13;;;38.13;;
1122;SDS011;548;48.778;9.252;2022-12-15T12:41:10;43.83;;;39.70;;
1122;SDS011;548;48.778;9.252;2022-12-15T12:43:45;40.87;;;37.17;;
1122;SDS011;548;48.778;9.252;2022-12-15T12:46:16;41.50;;;37.50;;
1122;SDS011;548;48.778;9.252;2022-12-15T12:48:47;41.43;;;37.70;;
1122;SDS011;548;48.778;9.252;2022-12-15T12:51:25;42.40;;;38.20;;
1122;SDS011;548;48.778;9.252;2022-12-15T12:53:55;41.67;;;38.00;;
1122;SDS011;548;48.778;9.252;2022-12-15T12:56:30;37.67;;;34.37;;
1122;SDS011;548;48.778;9.252;2022-12-15T12:59:03;38.33;;;35.10;;
1122;SDS011;548;48.778;9.252;2022-12-15T13:01:51;42.27;;;38.33;;
1122;SDS011;548;48.778;9.252;2022-12-15T13:07:27;40.60;;;36.83;;
1122;SDS011;548;48.778;9.252;2022-12-15T13:10:00;39.13;;;35.27;;
1122;SDS011;548;48.778;9.252;2022-12-15T13:12:44;40.03;;;36.23;;
1122;SDS011;548;48.778;9.252;2022-12-15T13:15:13;38.93;;;35.10;;
1122;SDS011;548;48.778;9.252;2022-12-15T13:17:55;39.13;;;35.47;;
1122;SDS011;548;48.778;9.252;2022-12-15T13:20:25;40.47;;;36.20;;
1122;SDS011;548;48.778;9.252;2022-12-15T13:22:55;39.50;;;35.60;;
1122;SDS011;548;48.778;9.252;2022-12-15T13:25:40;39.93;;;35.93;;
1122;SDS011;548;48.778;9.252;2022-12-15T13:28:22;40.10;;;36.10;;
1122;SDS011;548;48.778;9.252;2022-12-15T13:33:54;39.30;;;35.10;;
1122;SDS011;548;48.778;9.252;2022-12-15T13:36:45;39.90;;;36.03;;
1122;SDS011;548;48.778;9.252;2022-12-15T13:42:34;42.67;;;38.27;;
1122;SDS011;548;48.778;9.252;2022-12-15T13:45:09;38.30;;;34.53;;
1122;SDS011;548;48.778;9.252;2022-12-15T13:47:49;41.40;;;37.00;;
1122;SDS011;548;48.778;9.252;2022-12-15T13:50:23;39.80;;;35.83;;
1122;SDS011;548;48.778;9.252;2022-12-15T13:53:01;41.03;;;37.03;;
1122;SDS011;548;48.778;9.252;2022-12-15T13:55:35;42.87;;;38.47;;
1122;SDS011;548;48.778;9.252;2022-12-15T13:58:05;41.23;;;36.93;;
1122;SDS011;548;48.778;9.252;2022-12-15T14:00:38;39.40;;;35.40;;
1122;SDS011;548;48.778;9.252;2022-12-15T14:03:14;41.00;;;36.80;;
1122;SDS011;548;48.778;9.252;2022-12-15T14:05:46;40.00;;;36.00;;
1122;SDS011;548;48.778;9.252;2022-12-15T14:08:14;42.73;;;38.37;;
1122;SDS011;548;48.778;9.252;2022-12-15T14:10:43;44.90;;;38.97;;
1122;SDS011;548;48.778;9.252;2022-12-15T14:13:15;42.30;;;38.00;;
1122;SDS011;548;48.778;9.252;2022-12-15T14:15:46;42.33;;;38.07;;
1122;SDS011;548;48.778;9.252;2022-12-15T14:18:21;41.43;;;37.40;;
1122;SDS011;548;48.778;9.252;2022-12-15T14:20:49;42.90;;;38.23;;
1122;SDS011;548;48.778;9.252;2022-12-15T14:23:18;40.50;;;36.40;;
1122;SDS011;548;48.778;9.252;2022-12-15T14:25:55;39.90;;;35.73;;
1122;SDS011;548;48.778;9.252;2022-12-15T14:28:29;41.20;;;37.23;;
1122;SDS011;548;48.778;9.252;2022-12-15T14:30:57;41.40;;;36.93;;
1122;SDS011;548;48.778;9.252;2022-12-15T14:33:27;40.43;;;36.10;;
1122;SDS011;548;48.778;9.252;2022-12-15T14:35:55;41.30;;;36.93;;
1122;SDS011;548;48.778;9.252;2022-12-15T14:38:25;39.13;;;35.27;;
1122;SDS011;548;48.778;9.252;2022-12-15T14:40:57;37.43;;;33.60;;
1122;SDS011;548;48.778;9.252;2022-12-15T14:43:27;35.97;;;32.57;;
1122;SDS011;548;48.778;9.252;2022-12-15T14:46:04;42.73;;;37.20;;
1122;SDS011;548;48.778;9.252;2022-12-15T14:48:33;42.80;;;37.23;;
1122;SDS011;548;48.778;9.252;2022-12-15T14:51:02;42.97;;;36.20;;
1122;SDS011;548;48.778;9.252;2022-12-15T14:53:30;39.60;;;35.67;;
1122;SDS011;548;48.778;9.252;2022-12-15T14:56:10;42.80;;;38.40;;
1122;SDS011;548;48.778;9.252;2022-12-15T14:58:40;37.67;;;34.03;;
1122;SDS011;548;48.778;9.252;2022-12-15T15:01:20;40.70;;;36.40;;
1122;SDS011;548;48.778;9.252;2022-12-15T15:03:56;38.20;;;34.10;;
1122;SDS011;548;48.778;9.252;2022-12-15T15:06:27;41.03;;;36.23;;
1122;SDS011;548;48.778;9.252;2022-12-15T15:09:17;38.47;;;34.53;;
1122;SDS011;548;48.778;9.252;2022-12-15T15:11:48;42.23;;;33.70;;
1122;SDS011;548;48.778;9.252;2022-12-15T15:14:19;40.33;;;35.93;;
1122;SDS011;548;48.778;9.252;2022-12-15T15:16:59;37.80;;;32.80;;
1122;SDS011;548;48.778;9.252;2022-12-15T15:19:29;38.63;;;33.77;;
1122;SDS011;548;48.778;9.252;2022-12-15T15:21:58;46.73;;;35.20;;
1122;SDS011;548;48.778;9.252;2022-12-15T15:24:28;37.97;;;32.17;;
1122;SDS011;548;48.778;9.252;2022-12-15T15:30:18;44.63;;;35.50;;
1122;SDS011;548;48.778;9.252;2022-12-15T15:32:50;41.70;;;34.80;;
1122;SDS011;548;48.778;9.252;2022-12-15T15:35:18;47.30;;;36.67;;
1122;SDS011;548;48.778;9.252;2022-12-15T15:37:45;45.87;;;37.00;;
1122;SDS011;548;48.778;9.252;2022-12-15T15:40:12;41.13;;;36.57;;
1122;SDS011;548;48.778;9.252;2022-12-15T15:42:41;41.17;;;34.90;;
1122;SDS011;548;48.778;9.252;2022-12-15T15:45:09;46.03;;;36.07;;
1122;SDS011;548;48.778;9.252;2022-12-15T15:47:40;36.67;;;32.80;;
1122;SDS011;548;48.778;9.252;2022-12-15T15:50:11;36.40;;;32.47;;
1122;SDS011;548;48.778;9.252;2022-12-15T15:52:39;40.13;;;32.23;;
1122;SDS011;548;48.778;9.252;2022-12-15T15:55:08;41.20;;;33.97;;
1122;SDS011;548;48.778;9.252;2022-12-15T15:57:38;39.67;;;33.37;;
1122;SDS011;548;48.778;9.252;2022-12-15T16:00:11;34.33;;;30.00;;
1122;SDS011;548;48.778;9.252;2022-12-15T16:02:42;36.67;;;31.03;;
1122;SDS011;548;48.778;9.252;2022-12-15T16:05:09;41.73;;;32.40;;
1122;SDS011;548;48.778;9.252;2022-12-15T16:07:35;39.30;;;33.70;;
1122;SDS011;548;48.778;9.252;2022-12-15T16:10:05;42.33;;;35.47;;
1122;SDS011;548;48.778;9.252;2022-12-15T16:12:38;35.37;;;31.70;;
1122;SDS011;548;48.778;9.252;2022-12-15T16:15:11;38.90;;;33.10;;
1122;SDS011;548;48.778;9.252;2022-12-15T16:17:39;35.60;;;31.90;;
1122;SDS011;548;48.778;9.252;2022-12-15T16:20:09;40.40;;;32.93;;
1122;SDS011;548;48.778;9.252;2022-12-15T16:22:37;33.90;;;30.47;;
1122;SDS011;548;48.778;9.252;2022-12-15T16:25:08;38.60;;;33.57;;
1122;SDS011;548;48.778;9.252;2022-12-15T16:27:40;33.23;;;28.60;;
1122;SDS011;548;48.778;9.252;2022-12-15T16:30:12;39.03;;;33.13;;
1122;SDS011;548;48.778;9.252;2022-12-15T16:32:40;33.90;;;30.20;;
1122;SDS011;548;48.778;9.252;2022-12-15T16:35:09;35.27;;;30.83;;
1122;SDS011;548;48.778;9.252;2022-12-15T16:37:36;43.43;;;32.00;;
1122;SDS011;548;48.778;9.252;2022-12-15T16:40:11;34.40;;;30.43;;
1122;SDS011;548;48.778;9.252;2022-12-15T16:42:40;34.20;;;30.70;;
1122;SDS011;548;48.778;9.252;2022-12-15T16:45:11;41.17;;;32.93;;
1122;SDS011;548;48.778;9.252;2022-12-15T16:47:41;35.23;;;31.43;;
1122;SDS011;548;48.778;9.252;2022-12-15T16:50:12;34.07;;;30.47;;
1122;SDS011;548;48.778;9.252;2022-12-15T16:52:40;39.13;;;33.33;;
1122;SDS011;548;48.778;9.252;2022-12-15T16:55:09;34.17;;;30.40;;
1122;SDS011;548;48.778;9.252;2022-12-15T16:57:43;36.27;;;32.47;;
1122;SDS011;548;48.778;9.252;2022-12-15T17:00:14;32.10;;;28.60;;
1122;SDS011;548;48.778;9.252;2022-12-15T17:02:43;32.93;;;29.40;;
1122;SDS011;548;48.778;9.252;2022-12-15T17:05:11;34.87;;;31.17;;
1122;SDS011;548;48.778;9.252;2022-12-15T17:07:38;36.30;;;28.80;;
1122;SDS011;548;48.778;9.252;2022-12-15T17:10:05;33.43;;;29.40;;
1122;SDS011;548;48.778;9.252;2022-12-15T17:12:32;32.90;;;29.40;;
1122;SDS011;548;48.778;9.252;2022-12-15T17:14:59;34.23;;;30.67;;
1122;SDS011;548;48.778;9.252;2022-12-15T17:17:27;35.27;;;28.30;;
1122;SDS011;548;48.778;9.252;2022-12-15T17:19:56;31.07;;;27.70;;
1122;SDS011;548;48.778;9.252;2022-12-15T17:22:24;35.57;;;27.10;;
1122;SDS011;548;48.778;9.252;2022-12-15T17:24:51;32.20;;;26.93;;
1122;SDS011;548;48.778;9.252;2022-12-15T17:29:48;29.80;;;26.37;;
1122;SDS011;548;48.778;9.252;2022-12-15T17:32:15;29.10;;;24.40;;
1122;SDS011;548;48.778;9.252;2022-12-15T17:34:42;32.60;;;25.77;;
1122;SDS011;548;48.778;9.252;2022-12-15T17:37:09;26.43;;;23.60;;
1122;SDS011;548;48.778;9.252;2022-12-15T17:39:40;29.30;;;24.73;;
1122;SDS011;548;48.778;9.252;2022-12-15T17:42:14;29.10;;;25.63;;
1122;SDS011;548;48.778;9.252;2022-12-15T17:44:44;28.70;;;25.33;;
1122;SDS011;548;48.778;9.252;2022-12-15T17:47:11;27.90;;;23.83;;
1122;SDS011;548;48.778;9.252;2022-12-15T17:49:39;32.50;;;25.23;;
1122;SDS011;548;48.778;9.252;2022-12-15T17:52:07;29.20;;;24.07;;
1122;SDS011;548;48.778;9.252;2022-12-15T17:54:48;30.60;;;23.87;;
1122;SDS011;548;48.778;9.252;2022-12-15T17:57:16;26.27;;;23.33;;
1122;SDS011;548;48.778;9.252;2022-12-15T17:59:42;29.80;;;26.60;;
1122;SDS011;548;48.778;9.252;2022-12-15T18:02:10;29.23;;;24.10;;
1122;SDS011;548;48.778;9.252;2022-12-15T18:04:37;32.10;;;27.80;;
1122;SDS011;548;48.778;9.252;2022-12-15T18:07:04;28.53;;;24.60;;
1122;SDS011;548;48.778;9.252;2022-12-15T18:09:33;31.17;;;25.20;;
1122;SDS011;548;48.778;9.252;2022-12-15T18:12:02;30.50;;;24.20;;
1122;SDS011;548;48.778;9.252;2022-12-15T18:14:28;36.73;;;27.10;;
1122;SDS011;548;48.778;9.252;2022-12-15T18:16:55;28.00;;;25.07;;
1122;SDS011;548;48.778;9.252;2022-12-15T18:19:22;30.93;;;26.33;;
1122;SDS011;548;48.778;9.252;2022-12-15T18:21:50;29.13;;;26.07;;
1122;SDS011;548;48.778;9.252;2022-12-15T18:24:17;30.17;;;25.50;;
1122;SDS011;548;48.778;9.252;2022-12-15T18:26:45;31.07;;;25.20;;
1122;SDS011;548;48.778;9.252;2022-12-15T18:29:26;37.37;;;27.83;;
1122;SDS011;548;48.778;9.252;2022-12-15T18:31:52;31.13;;;25.53;;
1122;SDS011;548;48.778;9.252;2022-12-15T18:34:20;33.80;;;25.70;;
1122;SDS011;548;48.778;9.252;2022-12-15T18:36:47;30.43;;;24.50;;
1122;SDS011;548;48.778;9.252;2022-12-15T18:39:16;31.70;;;25.37;;
1122;SDS011;548;48.778;9.252;2022-12-15T18:41:44;28.20;;;24.83;;
1122;SDS011;548;48.778;9.252;2022-12-15T18:44:13;38.17;;;27.73;;
1122;SDS011;548;48.778;9.252;2022-12-15T18:46:47;33.07;;;28.10;;
1122;SDS011;548;48.778;9.252;2022-12-15T18:49:14;36.03;;;26.83;;
1122;SDS011;548;48.778;9.252;2022-12-15T18:51:42;34.00;;;25.43;;
1122;SDS011;548;48.778;9.252;2022-12-15T18:54:13;31.53;;;25.40;;
1122;SDS011;548;48.778;9.252;2022-12-15T18:56:43;34.37;;;26.50;;
1122;SDS011;548;48.778;9.252;2022-12-15T19:22:57;31.13;;;27.50;;
1122;SDS011;548;48.778;9.252;2022-12-15T19:25:24;35.80;;;29.17;;
1122;SDS011;548;48.778;9.252;2022-12-15T19:27:53;30.53;;;27.13;;
1122;SDS011;548;48.778;9.252;2022-12-15T19:30:22;34.47;;;25.73;;
1122;SDS011;548;48.778;9.252;2022-12-15T19:32:51;35.70;;;27.60;;
1122;SDS011;548;48.778;9.252;2022-12-15T19:35:17;30.37;;;25.30;;
1122;SDS011;548;48.778;9.252;2022-12-15T19:37:44;31.50;;;26.40;;
1122;SDS011;548;48.778;9.252;2022-12-15T19:40:17;28.03;;;25.03;;
1122;SDS011;548;48.778;9.252;2022-12-15T19:42:46;31.60;;;25.57;;
1122;SDS011;548;48.778;9.252;2022-12-15T19:45:14;34.07;;;26.57;;
1122;SDS011;548;48.778;9.252;2022-12-15T19:47:43;31.87;;;27.87;;
1122;SDS011;548;48.778;9.252;2022-12-15T19:50:11;29.50;;;25.27;;
1122;SDS011;548;48.778;9.252;2022-12-15T19:52:40;33.13;;;26.17;;
1122;SDS011;548;48.778;9.252;2022-12-15T19:55:11;31.93;;;25.30;;
1122;SDS011;548;48.778;9.252;2022-12-15T19:57:41;33.03;;;26.90;;
1122;SDS011;548;48.778;9.252;2022-12-15T20:00:12;28.87;;;24.23;;
1122;SDS011;548;48.778;9.252;2022-12-15T20:02:40;27.60;;;23.53;;
1122;SDS011;548;48.778;9.252;2022-12-15T20:05:08;30.10;;;24.47;;
1122;SDS011;548;48.778;9.252;2022-12-15T20:07:35;29.93;;;25.80;;
1122;SDS011;548;48.778;9.252;2022-12-15T20:10:02;30.53;;;25.53;;
1122;SDS011;548;48.778;9.252;2022-12-15T20:12:29;30.67;;;24.70;;
1122;SDS011;548;48.778;9.252;2022-12-15T20:14:57;30.57;;;27.37;;
1122;SDS011;548;48.778;9.252;2022-12-15T20:17:24;36.40;;;25.37;;
1122;SDS011;548;48.778;9.252;2022-12-15T20:19:51;35.20;;;25.00;;
1122;SDS011;548;48.778;9.252;2022-12-15T20:22:18;30.97;;;26.90;;
1122;SDS011;548;48.778;9.252;2022-12-15T20:24:45;30.50;;;25.73;;
1122;SDS011;548;48.778;9.252;2022-12-15T20:27:13;38.23;;;28.33;;
1122;SDS011;548;48.778;9.252;2022-12-15T20:29:42;31.60;;;27.80;;